Etusivu
METAR-TAF:

METAR-TAF

Lentoasemat :

Kuningas Abdilazizin kansainvälinen lentoasema

Jedda, Saudi-Arabia

Leveyspiiri: 21-42N, Pituuspiiri: 039-11E, korkeus merenpinnasta: 15 m

Tämänhetkinen sää

Tämä raportti tehtiin 51 minuuttia sitten, kello 13.00 UTC
Tuuli 9 kn lännestä/lounaasta
Lämpötila 33°C
Kosteus 49%
Ilmanpaine 1008 hPa
Näkyvyys 10 km tai enemmän
Muutamia pilviä 3500 ft:n korkeudessa

METAR: OEJN 121300Z 25009KT 9999 FEW035 33/21 Q1008 NOSIG

Aika: 16:51 (13:51 UTC)

Sääennuste

Tämä raportti tehtiin 2 tuntia ja 51 minuuttia sitten, kello 11.00 UTC
Ennuste voimassa 12. päivästä klo 12 UTC - 13. päivään klo 18 UTC
Tuuli 14 kn lännestä/lounaasta
Näkyvyys 10 km tai enemmän
Muutamia pilviä 4000 ft:n korkeudessa
Tulossa
12. päivästä klo 18 UTC - 12. päivään klo 20 UTC
Tuuli 8 kn idästä

TAF: OEJN 121100Z 1212/1318 24014KT 9999 FEW040 BECMG 1218/1220 08008KT

Säähavainnot ja -ennusteet yli 4000 lentoasemalta (METAR- ja TAF-raportit).

Käytössä olevat sääasemat on merkitty karttaan keltaisilla ja punaisilla pisteillä.

Aseta hiiri pisteen päälle nähdäksesi sääaseman nimen.

Klikkaa sitten nähdäksesi säähavainnot ja -ennusteet.

Kartan vaihtaminen: klikkaa mustalla rastilla varustettuja vihreitä pisteitä, niin voit zoomata sisään; viivalla varustettua vihreää pistettä, niin voit zoomata ulos tai vihreitä nuolia, niin pääset viereisille kartoille.


METAR-TAF: